CheckWX is a tool to help pilots better visualize weather data.  It is not intended as a substitute for an official pre-flight weather briefing.

16:37:26 UTC

O32 METAR
Reedley Municipal Airport
Reedley, California, USA
Current

32 mins ago

KO32 221605Z AUTO 00000KT 10SM 25/16 A2980 RMK AO2
Observed
Aug-22 @ 16:05 UTC
Visibility
10 SM
Temperature
25°C / 77°F
Dewpoint
16°C / 61°F
Humidity
57%
Altimeter
29.8" Hg
Pressure
1009.12 hPa
Previous

52 mins ago

KO32 221545Z AUTO 00000KT 10SM 25/15 A2980 RMK AO2
Observed
Aug-22 @ 15:45 UTC
Visibility
10 SM
Temperature
25°C / 77°F
Dewpoint
15°C / 59°F
Humidity
54%
Altimeter
29.8" Hg
Pressure
1009.12 hPa
Previous

1 hour ago

KO32 221525Z AUTO 00000KT 10SM 24/15 A2980 RMK AO2
Observed
Aug-22 @ 15:25 UTC
Visibility
10 SM
Temperature
24°C / 75°F
Dewpoint
15°C / 59°F
Humidity
57%
Altimeter
29.8" Hg
Pressure
1009.12 hPa